createdAt,value
2023-01-05T00:05:59.622Z,5.03
2023-01-05T00:12:20.015Z,4.70
2023-01-05T00:18:40.615Z,5.45
2023-01-05T00:24:42.574Z,5.05
2023-01-05T00:30:46.465Z,5.30
2023-01-05T00:36:48.237Z,5.28
2023-01-05T00:42:50.061Z,4.80
2023-01-05T00:48:51.860Z,5.10
2023-01-05T00:54:53.702Z,5.20
2023-01-05T01:00:55.601Z,4.88
2023-01-05T01:06:57.661Z,4.82
2023-01-05T01:12:59.445Z,3.83
2023-01-05T01:19:05.124Z,3.53
2023-01-05T01:25:07.811Z,2.80
2023-01-05T01:31:09.757Z,3.50
2023-01-05T01:37:12.048Z,3.20
2023-01-05T01:43:40.283Z,3.55
2023-01-05T01:49:42.701Z,4.20
2023-01-05T01:55:45.282Z,4.43
2023-01-05T02:01:50.243Z,4.18
2023-01-05T02:07:52.153Z,4.90
2023-01-05T02:14:09.025Z,3.17
2023-01-05T02:20:28.304Z,2.28
2023-01-05T02:26:38.454Z,1.83
2023-01-05T02:33:07.154Z,2.05
2023-01-05T02:39:16.431Z,1.63
2023-01-05T02:45:22.396Z,1.60
2023-01-05T02:51:42.415Z,3.00
2023-01-05T02:57:56.444Z,3.63
2023-01-05T03:04:26.401Z,3.75
2023-01-05T03:10:50.021Z,4.67
2023-01-05T03:16:56.060Z,4.18
2023-01-05T03:23:21.150Z,3.67
2023-01-05T03:29:41.743Z,3.45
2023-01-05T03:35:47.962Z,4.35
2023-01-05T03:41:50.841Z,4.05
2023-01-05T03:47:53.898Z,3.47
2023-01-05T03:54:00.305Z,3.85
2023-01-05T04:00:06.132Z,3.70
2023-01-05T04:06:19.997Z,3.50
2023-01-05T04:12:22.983Z,3.92
2023-01-05T04:18:26.066Z,3.03
2023-01-05T04:24:28.247Z,3.55
2023-01-05T04:30:30.255Z,3.42
2023-01-05T04:36:33.524Z,3.42
2023-01-05T04:42:36.176Z,3.60
2023-01-05T04:48:38.254Z,3.38
2023-01-05T04:54:40.625Z,3.35
2023-01-05T05:00:44.002Z,3.30
2023-01-05T05:06:45.911Z,3.35
2023-01-05T05:12:49.823Z,3.22
2023-01-05T05:18:51.722Z,3.65
2023-01-05T05:24:58.440Z,3.50
2023-01-05T05:31:00.977Z,3.47
2023-01-05T05:37:02.929Z,3.25
2023-01-05T05:43:04.758Z,2.70
2023-01-05T05:49:08.700Z,3.38
2023-01-05T05:55:10.546Z,3.22
2023-01-05T06:01:12.680Z,3.30
2023-01-05T06:07:14.535Z,3.03
2023-01-05T06:13:17.665Z,3.15
2023-01-05T06:19:19.475Z,3.03
2023-01-05T06:25:21.388Z,2.55
2023-01-05T06:31:23.262Z,3.22
2023-01-05T06:37:25.101Z,2.80
2023-01-05T06:43:26.996Z,2.65
2023-01-05T06:49:28.964Z,3.33
2023-01-05T06:55:30.825Z,3.20
2023-01-05T07:01:32.851Z,2.90
2023-01-05T07:07:35.012Z,3.70
2023-01-05T07:13:36.910Z,3.95
2023-01-05T07:19:39.397Z,2.80
2023-01-05T07:25:41.346Z,3.75
2023-01-05T07:31:43.501Z,3.30
2023-01-05T07:37:45.386Z,3.10
2023-01-05T07:43:50.246Z,3.10
2023-01-05T07:49:52.023Z,2.63
2023-01-05T07:56:01.391Z,2.90
2023-01-05T08:02:03.375Z,2.65
2023-01-05T08:08:05.685Z,2.35
2023-01-05T08:14:07.939Z,2.25
2023-01-05T08:20:10.367Z,1.98
2023-01-05T08:26:14.773Z,2.40
2023-01-05T08:32:16.648Z,3.22
2023-01-05T08:38:21.693Z,2.80
2023-01-05T08:44:23.508Z,3.13
2023-01-05T08:50:25.704Z,3.30
2023-01-05T08:56:31.728Z,3.85
2023-01-05T09:02:36.684Z,3.53
2023-01-05T09:08:40.470Z,3.67
2023-01-05T09:14:42.569Z,3.00
2023-01-05T09:20:44.416Z,3.13
2023-01-05T09:26:46.284Z,2.58
2023-01-05T09:32:48.305Z,2.50
2023-01-05T09:38:54.442Z,2.15
2023-01-05T09:45:04.833Z,2.08
2023-01-05T09:51:08.832Z,2.50
2023-01-05T09:57:26.741Z,2.60
2023-01-05T10:04:02.316Z,2.80
2023-01-05T10:09:55.166Z,2.30
2023-01-05T10:15:57.112Z,2.10
2023-01-05T10:22:40.634Z,3.17
2023-01-05T10:29:06.867Z,3.45
2023-01-05T10:35:59.481Z,4.32
2023-01-05T10:42:18.282Z,2.53
2023-01-05T10:48:24.175Z,3.10
2023-01-05T10:54:44.309Z,3.33
2023-01-05T11:00:46.212Z,3.45
2023-01-05T11:06:48.252Z,3.38
2023-01-05T11:13:24.207Z,3.70
2023-01-05T11:19:32.011Z,3.17
2023-01-05T11:25:34.151Z,3.65
2023-01-05T11:31:44.878Z,4.13
2023-01-05T11:37:46.983Z,4.00
2023-01-05T11:43:49.544Z,3.70
2023-01-05T11:50:02.821Z,2.60
2023-01-05T11:56:23.200Z,3.08
2023-01-05T12:02:53.424Z,2.38
2023-01-05T12:09:05.972Z,3.17
2023-01-05T12:15:33.770Z,2.53
2023-01-05T12:21:45.555Z,2.47
2023-01-05T12:28:12.665Z,2.53
2023-01-05T12:34:39.186Z,2.53
2023-01-05T12:40:59.874Z,3.10
2023-01-05T12:47:36.915Z,3.08
2023-01-05T12:53:49.684Z,3.22
2023-01-05T12:59:51.508Z,3.17
2023-01-05T13:06:15.624Z,3.45
2023-01-05T13:12:17.644Z,2.53
2023-01-05T13:18:23.228Z,3.15
2023-01-05T13:24:48.650Z,2.60
2023-01-05T13:31:52.161Z,3.20
2023-01-05T13:38:12.263Z,2.90
2023-01-05T13:44:20.183Z,3.13
2023-01-05T13:56:40.074Z,3.42
2023-01-05T14:02:56.757Z,3.38
2023-01-05T14:09:09.122Z,3.08
2023-01-05T14:15:25.906Z,3.40
2023-01-05T14:21:51.225Z,2.80
2023-01-05T14:28:19.064Z,2.80
2023-01-05T14:34:23.142Z,2.50
2023-01-05T14:40:42.250Z,2.70
2023-01-05T14:46:55.327Z,2.45
2023-01-05T14:53:09.506Z,2.63
2023-01-05T14:59:25.991Z,2.83
2023-01-05T15:05:28.769Z,2.70
2023-01-05T15:11:57.760Z,2.83
2023-01-05T15:18:05.510Z,3.40
2023-01-05T15:24:25.874Z,3.22
2023-01-05T15:30:51.615Z,3.03
2023-01-05T15:37:23.627Z,3.63
2023-01-05T15:43:25.837Z,3.25
2023-01-05T15:49:31.111Z,3.50
2023-01-05T15:55:32.983Z,3.65
2023-01-05T16:01:37.635Z,3.47
2023-01-05T16:07:43.287Z,3.90
2023-01-05T16:13:48.836Z,3.67
2023-01-05T16:20:12.109Z,4.07
2023-01-05T16:26:17.489Z,3.30
2023-01-05T16:32:37.973Z,3.97
2023-01-05T16:38:41.065Z,4.22
2023-01-05T16:44:52.299Z,5.10
2023-01-05T16:50:56.933Z,11.60
2023-01-05T16:57:01.617Z,8.30
2023-01-05T17:03:30.293Z,6.13
2023-01-05T17:09:33.429Z,5.53
2023-01-05T17:15:36.315Z,5.22
2023-01-05T17:21:40.397Z,4.72
2023-01-05T17:27:42.286Z,5.63
2023-01-05T17:33:44.026Z,6.32
2023-01-05T17:39:45.801Z,5.72
2023-01-05T17:45:47.718Z,5.88
2023-01-05T17:51:49.509Z,6.22
2023-01-05T17:57:51.620Z,7.32
2023-01-05T18:03:53.386Z,7.28
2023-01-05T18:09:55.113Z,10.40
2023-01-05T18:21:58.766Z,9.82
2023-01-05T18:28:01.462Z,8.93
2023-01-05T18:34:03.289Z,8.85
2023-01-05T18:40:06.142Z,9.27
2023-01-05T18:46:08.446Z,10.00
2023-01-05T18:52:11.051Z,10.40
2023-01-05T18:58:12.916Z,10.63
2023-01-05T19:04:16.308Z,11.70
2023-01-05T19:10:18.302Z,11.48
2023-01-05T19:16:23.999Z,11.45
2023-01-05T19:22:31.692Z,10.55
2023-01-05T19:28:41.127Z,10.07
2023-01-05T19:34:43.030Z,10.48
2023-01-05T19:40:44.759Z,11.05
2023-01-05T19:46:49.092Z,12.02
2023-01-05T19:52:51.357Z,10.55
2023-01-05T19:58:55.704Z,10.65
2023-01-05T20:04:57.575Z,9.40
2023-01-05T20:11:04.376Z,9.60
2023-01-05T20:17:08.921Z,9.60
2023-01-05T20:23:13.592Z,8.68
2023-01-05T20:29:16.773Z,10.23
2023-01-05T20:35:18.622Z,9.63
2023-01-05T20:41:24.977Z,9.20
2023-01-05T20:47:27.252Z,9.20
2023-01-05T20:53:30.751Z,9.88
2023-01-05T20:59:35.054Z,9.55
2023-01-05T21:05:39.583Z,8.93
2023-01-05T21:11:43.454Z,9.20
2023-01-05T21:17:47.873Z,7.70
2023-01-05T21:23:51.205Z,8.35
2023-01-05T21:29:53.080Z,9.35
2023-01-05T21:35:56.148Z,12.00
2023-01-05T21:42:16.421Z,9.00
2023-01-05T21:48:18.232Z,6.25
2023-01-05T21:54:39.658Z,6.13
2023-01-05T22:00:41.541Z,6.78
2023-01-05T22:06:43.764Z,6.30
2023-01-05T22:12:45.620Z,6.57
2023-01-05T22:18:47.830Z,6.35
2023-01-05T22:24:49.793Z,7.05
2023-01-05T22:30:51.685Z,8.23
2023-01-05T22:36:53.575Z,7.55
2023-01-05T22:42:55.332Z,7.20
2023-01-05T22:48:58.209Z,7.18
2023-01-05T22:55:00.190Z,7.10
2023-01-05T23:01:12.007Z,6.18
2023-01-05T23:07:14.297Z,6.60
2023-01-05T23:13:16.211Z,7.10
2023-01-05T23:19:18.319Z,6.93
2023-01-05T23:25:20.125Z,7.35
2023-01-05T23:31:22.024Z,7.18
2023-01-05T23:37:23.813Z,7.50
2023-01-05T23:43:27.473Z,7.25
2023-01-05T23:49:29.374Z,7.03
2023-01-05T23:55:31.170Z,5.65
